Morgantown, WV (26505)

8:36 PM EST on January 29, 2015 (GMT -0500)
Top of South Park | Change Station
CLOSE
Current Station
Personal Weather Station
Location: Morgantown, WV
Elevation: 1245 ft
Nearby Weather Stations

Elev 1245 ft 39.62 °N, 79.96 °W | Updated 3 seconds ago

Overcast
Overcast
38.5 °F
Feels Like 36 °F
N
4.0
Wind Variable Wind from NW
Gusts 4.9 mph

Today
High -- | Low -- °F
--% Chance of Precip.
Yesterday
High -- | Low -- °F
Precip. -- in
7:30 AM 5:36 PM
Waxing Gibbous, 78% visible
Pressure 29.90 in
Visibility 9.0 miles
Clouds Few 700 ft
Mostly Cloudy 1500 ft
Overcast 2100 ft
Windchill 36 °F
Dew Point 34 °F
Humidity 85%
Rainfall 0.09 in
Snow Depth Not available.
UV 0 out of 12
Pollen .10 out of 12
Air Quality Not available.
Flu Activity Not available.
SPECI KMGW 300124Z 28011G23KT 9SM -RA FEW007 BKN015 OVC021 04/01 A2990 RMK AO2 P0001 T00390006

More Conditions Fewer Conditions

Pressure 29.90 in
Visibility 9.0 miles
Clouds Few 700 ft
Mostly Cloudy 1500 ft
Overcast 2100 ft
Windchill 36 °F
Dew Point 34 °F
Humidity 85%
Rainfall 0.09 in
Snow Depth Not available.
UV 0 out of 12
Pollen .10 out of 12
Air Quality Not available.
Flu Activity Not available.
SPECI KMGW 300124Z 28011G23KT 9SM -RA FEW007 BKN015 OVC021 04/01 A2990 RMK AO2 P0001 T00390006

More Conditions Fewer Conditions

10-Day Weather Forecast

Almanac

Astronomy

Jan. 29, 2015 Rise Set
Actual Time
Civil Twilight
Nautical Twilight
Astronomical Twilight
Moon
Length of Visible Light
Length of Day
Tomorrow will be .
, % of the Moon is Illuminated

Today's Extremes

State Highs State Lows

Community

WunderPhotos

Upload Photos

1,791,668 photos uploaded!

WunderBlogs® & News

Nearby

Air Quality

  Air Quality AQ Index Pollutant
Not available.

Snow Depth

Station Depth Elevation

Earthquake Activity

City Distance Mag. Time & Date
Minimum magnitude displayed is 2.5.

Coastal Water Temperatures

Place Temperature

Nearby Weather Stations